M17 weather

Bolivar Municipal Airport
Bolivar, Missouri, United States

Public forecast

Using degrees Fahrenheit for public forecast. Weather courtesy of forecast.io.

Closest aviation weather report (METAR) to Bolivar Municipal Airport

Closest report is Springfield Branson National Airport, 21.1 nm (39.1 km) S. Retrieved 2019/10/18 07:52 UTC (15 minutes ago):

KSGF 180752Z 15008KT 10SM CLR 10/07 A2993 RMK AO2 SLP129 T01000067

Closest aviation forecast (TAF) to Bolivar Municipal Airport

Closest forecast is Springfield Branson National Airport, 21.1 nm (39.1 km) S. Retrieved 2019/10/18 06:22 UTC (2 hours ago):

TAF KSGF 180520Z 1806/1906 16010KT P6SM SKC FM181300 15013G21KT P6SM SCT250